createdAt,value
2017-06-25T00:01:34.223Z,100474.78
2017-06-25T00:04:02.600Z,100473.66
2017-06-25T00:06:30.976Z,100477.70
2017-06-25T00:09:00.007Z,100478.03
2017-06-25T00:11:28.780Z,100473.38
2017-06-25T00:13:57.552Z,100467.35
2017-06-25T00:16:26.112Z,100464.98
2017-06-25T00:18:54.488Z,100459.17
2017-06-25T00:21:23.092Z,100457.92
2017-06-25T00:23:52.404Z,100452.79
2017-06-25T00:26:20.784Z,100458.84
2017-06-25T00:28:49.163Z,100458.12
2017-06-25T00:31:17.868Z,100454.80
2017-06-25T00:33:46.639Z,100450.45
2017-06-25T00:36:15.016Z,100447.70
2017-06-25T00:38:43.721Z,100453.64
2017-06-25T00:41:12.499Z,100444.77
2017-06-25T00:43:41.297Z,100447.17
2017-06-25T00:46:10.613Z,100442.27
2017-06-25T00:48:39.375Z,100434.78
2017-06-25T00:51:07.785Z,100437.41
2017-06-25T00:53:41.983Z,100435.44
2017-06-25T00:56:10.352Z,100432.64
2017-06-25T00:58:38.732Z,100430.37
2017-06-25T01:01:07.316Z,100427.35
2017-06-25T01:03:35.699Z,100423.70
2017-06-25T01:06:04.408Z,100420.09
2017-06-25T01:08:33.480Z,100414.47
2017-06-25T01:11:01.860Z,100413.78
2017-06-25T01:13:30.242Z,100404.77
2017-06-25T01:15:58.831Z,100399.51
2017-06-25T01:18:27.207Z,100400.43
2017-06-25T01:20:55.587Z,100398.95
2017-06-25T01:23:24.476Z,100397.17
2017-06-25T01:25:52.857Z,100400.50
2017-06-25T01:28:21.291Z,100400.00
2017-06-25T01:30:50.023Z,100389.78
2017-06-25T01:33:18.403Z,100391.85
2017-06-25T01:35:46.775Z,100397.80
2017-06-25T01:38:15.371Z,100396.32
2017-06-25T01:40:43.756Z,100395.30
2017-06-25T01:43:12.131Z,100394.74
2017-06-25T01:45:40.792Z,100396.75
2017-06-25T01:48:09.171Z,100394.38
2017-06-25T01:50:37.551Z,100387.35
2017-06-25T01:53:06.156Z,100389.25
2017-06-25T01:55:34.533Z,100390.73
2017-06-25T01:58:02.908Z,100387.64
2017-06-25T02:00:31.495Z,100384.16
2017-06-25T02:02:59.881Z,100380.48
2017-06-25T02:05:28.259Z,100385.44
2017-06-25T02:07:57.171Z,100379.20
2017-06-25T02:10:25.946Z,100369.54
2017-06-25T02:12:54.324Z,100372.95
2017-06-25T02:15:23.113Z,100368.75
2017-06-25T02:17:51.819Z,100371.38
2017-06-25T02:20:20.591Z,100373.78
2017-06-25T02:22:49.137Z,100359.48
2017-06-25T02:25:17.736Z,100358.17
2017-06-25T02:27:46.112Z,100356.63
2017-06-25T02:30:14.821Z,100356.27
2017-06-25T02:32:43.204Z,100353.47
2017-06-25T02:35:11.907Z,100357.11
2017-06-25T02:37:40.981Z,100357.47
2017-06-25T02:40:09.359Z,100361.45
2017-06-25T02:42:37.746Z,100348.27
2017-06-25T02:45:06.589Z,100352.73
2017-06-25T02:47:35.239Z,100349.55
2017-06-25T02:50:04.011Z,100348.57
2017-06-25T02:52:32.595Z,100351.20
2017-06-25T02:55:00.981Z,100356.91
2017-06-25T02:57:29.459Z,100350.27
2017-06-25T02:59:58.120Z,100348.05
2017-06-25T03:02:26.500Z,100352.22
2017-06-25T03:04:54.890Z,100348.17
2017-06-25T03:07:23.691Z,100351.21
2017-06-25T03:09:52.084Z,100349.08
2017-06-25T03:12:20.863Z,100354.84
2017-06-25T03:14:49.547Z,100356.02
2017-06-25T03:17:17.931Z,100349.57
2017-06-25T03:19:46.324Z,100339.70
2017-06-25T03:22:15.503Z,100346.30
2017-06-25T03:24:43.887Z,100338.18
2017-06-25T03:27:12.572Z,100339.34
2017-06-25T03:29:41.265Z,100336.50
2017-06-25T03:32:09.650Z,100341.20
2017-06-25T03:34:38.030Z,100338.02
2017-06-25T03:37:06.992Z,100337.59
2017-06-25T03:39:35.380Z,100335.00
2017-06-25T03:42:03.765Z,100332.31
2017-06-25T03:44:32.459Z,100333.54
2017-06-25T03:47:00.839Z,100335.61
2017-06-25T03:49:29.225Z,100330.12
2017-06-25T03:51:58.012Z,100328.77
2017-06-25T03:54:26.495Z,100330.48
2017-06-25T03:56:54.871Z,100332.74
2017-06-25T03:59:23.759Z,100329.81
2017-06-25T04:01:52.139Z,100325.39
2017-06-25T04:04:20.847Z,100327.31
2017-06-25T04:06:49.412Z,100324.19
2017-06-25T04:09:17.791Z,100315.92
2017-06-25T04:11:46.171Z,100319.89
2017-06-25T04:14:14.964Z,100319.89
2017-06-25T04:16:43.343Z,100316.55
2017-06-25T04:19:11.724Z,100311.55
2017-06-25T04:21:40.411Z,100311.61
2017-06-25T04:24:08.796Z,100307.05
2017-06-25T04:26:37.579Z,100304.92
2017-06-25T04:29:06.679Z,100301.63
2017-06-25T04:31:35.060Z,100299.66
2017-06-25T04:34:03.443Z,100297.20
2017-06-25T04:36:32.857Z,100294.16
2017-06-25T04:39:01.641Z,100285.55
2017-06-25T04:41:30.421Z,100288.17
2017-06-25T04:43:58.995Z,100279.11
2017-06-25T04:46:27.375Z,100284.42
2017-06-25T04:48:55.766Z,100282.77
2017-06-25T04:51:24.442Z,100276.70
2017-06-25T04:53:53.147Z,100274.95
2017-06-25T04:56:21.923Z,100274.41
2017-06-25T04:58:50.508Z,100274.63
2017-06-25T05:01:18.887Z,100274.52
2017-06-25T05:03:47.278Z,100277.86
2017-06-25T05:06:16.467Z,100273.69
2017-06-25T05:08:44.851Z,100270.18
2017-06-25T05:11:13.551Z,100272.12
2017-06-25T05:13:42.628Z,100266.61
2017-06-25T05:16:11.004Z,100256.83
2017-06-25T05:18:39.379Z,100250.10
2017-06-25T05:21:08.860Z,100250.16
2017-06-25T05:23:37.243Z,100253.50
2017-06-25T05:26:05.624Z,100244.36
2017-06-25T05:28:34.207Z,100244.16
2017-06-25T05:31:02.911Z,100254.67
2017-06-25T05:33:31.283Z,100248.20
2017-06-25T05:35:59.879Z,100254.94
2017-06-25T05:38:28.255Z,100254.29
2017-06-25T05:40:56.645Z,100256.34
2017-06-25T05:43:25.439Z,100252.27
2017-06-25T05:45:53.819Z,100252.48
2017-06-25T05:48:22.200Z,100248.16
2017-06-25T05:50:50.775Z,100251.53
2017-06-25T05:53:19.159Z,100249.34
2017-06-25T05:55:47.535Z,100250.66
2017-06-25T05:58:16.223Z,100251.52
2017-06-25T06:00:44.599Z,100251.52
2017-06-25T06:03:12.967Z,100253.17
2017-06-25T06:05:41.570Z,100250.59
2017-06-25T06:08:09.939Z,100246.29
2017-06-25T06:10:38.316Z,100248.18
2017-06-25T06:13:07.241Z,100250.28
2017-06-25T06:15:36.013Z,100254.88
2017-06-25T06:18:04.395Z,100249.44
2017-06-25T06:20:33.099Z,100244.13
2017-06-25T06:23:01.878Z,100252.59
2017-06-25T06:25:30.652Z,100253.31
2017-06-25T06:27:59.350Z,100252.97
2017-06-25T06:30:27.729Z,100251.38
2017-06-25T06:32:56.327Z,100250.24
2017-06-25T06:35:25.406Z,100257.56
2017-06-25T06:37:53.779Z,100255.47
2017-06-25T06:40:22.156Z,100263.44
2017-06-25T06:42:50.757Z,100263.70
2017-06-25T06:45:19.531Z,100260.37
2017-06-25T06:47:47.911Z,100255.89
2017-06-25T06:50:16.623Z,100255.35
2017-06-25T06:52:45.392Z,100250.52
2017-06-25T06:55:13.824Z,100244.94
2017-06-25T06:57:42.512Z,100240.48
2017-06-25T07:00:10.892Z,100230.52
2017-06-25T07:02:39.275Z,100235.50
2017-06-25T07:05:07.875Z,100225.42
2017-06-25T07:07:36.251Z,100232.00
2017-06-25T07:10:04.632Z,100230.69
2017-06-25T07:12:33.242Z,100228.78
2017-06-25T07:15:01.624Z,100234.39
2017-06-25T07:17:30.331Z,100231.13
2017-06-25T07:19:59.273Z,100227.49
2017-06-25T07:22:27.657Z,100223.13
2017-06-25T07:24:56.035Z,100220.98
2017-06-25T07:27:24.647Z,100221.20
2017-06-25T07:29:53.076Z,100224.23
2017-06-25T07:32:21.460Z,100217.23
2017-06-25T07:34:50.479Z,100214.27
2017-06-25T07:37:18.855Z,100210.06
2017-06-25T07:39:47.223Z,100211.46
2017-06-25T07:42:15.801Z,100204.26
2017-06-25T07:44:44.184Z,100204.80
2017-06-25T07:47:12.562Z,100206.91
2017-06-25T07:49:41.296Z,100200.03
2017-06-25T07:52:09.667Z,100211.53
2017-06-25T07:54:38.279Z,100206.94
2017-06-25T07:57:07.247Z,100214.67
2017-06-25T07:59:35.618Z,100220.98
2017-06-25T08:02:04.239Z,100227.36
2017-06-25T08:04:33.343Z,100233.94
2017-06-25T08:07:02.034Z,100230.99
2017-06-25T08:09:30.415Z,100238.30
2017-06-25T08:11:59.072Z,100234.61
2017-06-25T08:14:27.447Z,100219.64
2017-06-25T08:16:55.823Z,100217.02
2017-06-25T08:19:24.384Z,100208.58
2017-06-25T08:21:52.762Z,100221.87
2017-06-25T08:24:21.141Z,100220.63
2017-06-25T08:26:49.696Z,100223.23
2017-06-25T08:29:18.084Z,100216.62
2017-06-25T08:31:46.461Z,100215.15
2017-06-25T08:34:15.096Z,100215.50
2017-06-25T08:36:43.707Z,100212.81
2017-06-25T08:39:12.474Z,100211.44
2017-06-25T08:41:41.260Z,100214.50
2017-06-25T08:44:09.631Z,100218.72
2017-06-25T08:46:38.005Z,100222.86
2017-06-25T08:49:06.932Z,100222.78
2017-06-25T08:51:35.695Z,100221.94
2017-06-25T08:54:04.067Z,100216.47
2017-06-25T08:56:32.767Z,100220.33
2017-06-25T08:59:01.134Z,100221.06
2017-06-25T09:01:29.507Z,100226.38
2017-06-25T09:03:58.126Z,100223.80
2017-06-25T09:06:26.899Z,100221.23
2017-06-25T09:08:55.268Z,100220.16
2017-06-25T09:11:23.865Z,100210.28
2017-06-25T09:13:52.658Z,100211.48
2017-06-25T09:16:21.030Z,100204.87
2017-06-25T09:18:49.925Z,100219.73
2017-06-25T09:21:18.301Z,100214.06
2017-06-25T09:23:46.667Z,100219.69
2017-06-25T09:26:15.268Z,100222.12
2017-06-25T09:28:43.642Z,100210.17
2017-06-25T09:31:12.012Z,100213.94
2017-06-25T09:33:40.771Z,100219.17
2017-06-25T09:36:09.138Z,100222.88
2017-06-25T09:38:37.783Z,100226.50
2017-06-25T09:41:06.690Z,100234.74
2017-06-25T09:43:35.463Z,100235.47
2017-06-25T09:46:03.837Z,100239.81
2017-06-25T09:48:32.432Z,100240.59
2017-06-25T09:51:01.135Z,100234.89
2017-06-25T09:53:29.890Z,100235.04
2017-06-25T09:55:58.586Z,100231.33
2017-06-25T09:58:26.960Z,100240.36
2017-06-25T10:00:55.576Z,100234.36
2017-06-25T10:03:24.339Z,100231.48
2017-06-25T10:05:52.709Z,100233.94
2017-06-25T10:08:21.084Z,100227.84
2017-06-25T10:10:49.683Z,100221.63
2017-06-25T10:13:18.050Z,100208.84
2017-06-25T10:15:46.432Z,100209.91
2017-06-25T10:18:15.027Z,100193.98
2017-06-25T10:20:43.406Z,100207.21
2017-06-25T10:23:12.075Z,100206.55
2017-06-25T10:25:40.679Z,100203.47
2017-06-25T10:28:09.051Z,100207.41
2017-06-25T10:30:37.420Z,100215.55
2017-06-25T10:33:06.019Z,100210.93
2017-06-25T10:35:34.387Z,100208.30
2017-06-25T10:38:02.755Z,100203.95
2017-06-25T10:40:31.775Z,100203.69
2017-06-25T10:43:00.143Z,100209.42
2017-06-25T10:45:28.514Z,100209.33
2017-06-25T10:47:57.127Z,100209.19
2017-06-25T10:50:25.499Z,100212.97
2017-06-25T10:52:53.871Z,100204.11
2017-06-25T10:55:22.562Z,100204.41
2017-06-25T10:57:51.175Z,100197.88
2017-06-25T11:00:19.542Z,100191.00
2017-06-25T11:02:48.645Z,100192.25
2017-06-25T11:05:17.406Z,100200.87
2017-06-25T11:07:45.775Z,100192.52
2017-06-25T11:10:14.578Z,100190.70
2017-06-25T11:12:42.946Z,100192.64
2017-06-25T11:15:11.324Z,100184.47
2017-06-25T11:17:39.933Z,100188.53
2017-06-25T11:20:08.315Z,100178.94
2017-06-25T11:22:36.682Z,100176.80
2017-06-25T11:25:05.370Z,100172.95
2017-06-25T11:27:33.738Z,100168.53
2017-06-25T11:30:02.107Z,100164.55
2017-06-25T11:32:30.916Z,100180.41
2017-06-25T11:34:59.320Z,100163.88
2017-06-25T11:37:28.086Z,100178.27
2017-06-25T11:39:56.672Z,100171.42
2017-06-25T11:42:25.349Z,100166.88
2017-06-25T11:44:53.722Z,100156.00
2017-06-25T11:47:22.323Z,100151.30
2017-06-25T11:49:50.691Z,100150.55
2017-06-25T11:52:19.062Z,100152.77
2017-06-25T11:54:47.675Z,100162.81
2017-06-25T11:57:16.048Z,100157.95
2017-06-25T11:59:44.419Z,100158.77
2017-06-25T12:02:13.015Z,100147.70
2017-06-25T12:04:41.387Z,100172.27
2017-06-25T12:07:09.774Z,100192.18
2017-06-25T12:09:38.559Z,100210.67
2017-06-25T12:12:06.931Z,100212.28
2017-06-25T12:14:35.303Z,100234.08
2017-06-25T12:17:04.007Z,100240.69
2017-06-25T12:19:32.379Z,100250.93
2017-06-25T12:22:00.746Z,100250.92
2017-06-25T12:24:29.350Z,100251.75
2017-06-25T12:26:57.724Z,100244.31
2017-06-25T12:29:26.091Z,100255.40
2017-06-25T12:31:55.127Z,100247.88
2017-06-25T12:34:23.894Z,100248.18
2017-06-25T12:36:52.265Z,100253.09
2017-06-25T12:39:20.863Z,100246.16
2017-06-25T12:41:49.570Z,100248.03
2017-06-25T12:44:18.115Z,100250.72
2017-06-25T12:46:46.711Z,100246.61
2017-06-25T12:49:15.088Z,100255.45
2017-06-25T12:51:43.459Z,100259.36
2017-06-25T12:54:12.159Z,100258.09
2017-06-25T12:56:40.531Z,100262.40
2017-06-25T12:59:08.909Z,100262.47
2017-06-25T13:01:37.503Z,100272.80
2017-06-25T13:04:05.877Z,100285.83
2017-06-25T13:06:34.252Z,100286.72
2017-06-25T13:09:03.279Z,100290.56
2017-06-25T13:11:32.050Z,100285.92
2017-06-25T13:14:00.422Z,100289.30
2017-06-25T13:16:29.211Z,100301.57
2017-06-25T13:18:57.584Z,100297.82
2017-06-25T13:21:25.956Z,100283.29
2017-06-25T13:23:54.543Z,100288.91
2017-06-25T13:26:22.915Z,100296.07
2017-06-25T13:28:51.318Z,100301.22
2017-06-25T13:31:20.106Z,100290.17
2017-06-25T13:33:48.540Z,100296.22
2017-06-25T13:36:16.915Z,100294.81
2017-06-25T13:38:45.755Z,100293.08
2017-06-25T13:41:14.131Z,100284.34
2017-06-25T13:43:42.822Z,100292.20
2017-06-25T13:46:11.738Z,100289.34
2017-06-25T13:48:40.511Z,100289.73
2017-06-25T13:51:08.890Z,100285.55
2017-06-25T13:53:37.567Z,100279.94
2017-06-25T13:56:05.939Z,100280.18
2017-06-25T13:58:34.558Z,100288.33
2017-06-25T14:01:03.644Z,100290.39
2017-06-25T14:03:32.019Z,100292.53
2017-06-25T14:06:00.387Z,100286.27
2017-06-25T14:08:28.966Z,100290.33
2017-06-25T14:10:57.337Z,100290.91
2017-06-25T14:13:25.707Z,100285.56
2017-06-25T14:15:54.320Z,100280.55
2017-06-25T14:18:22.694Z,100281.94
2017-06-25T14:20:51.058Z,100291.52
2017-06-25T14:23:19.663Z,100295.11
2017-06-25T14:25:48.038Z,100285.57
2017-06-25T14:28:16.483Z,100284.05
2017-06-25T14:30:45.116Z,100282.02
2017-06-25T14:33:13.487Z,100274.50
2017-06-25T14:35:41.859Z,100272.30
2017-06-25T14:38:10.451Z,100267.48
2017-06-25T14:40:40.068Z,100260.27
2017-06-25T14:43:08.443Z,100267.92
2017-06-25T14:45:37.335Z,100269.54
2017-06-25T14:48:05.771Z,100263.81
2017-06-25T14:50:34.151Z,100251.09
2017-06-25T14:53:03.807Z,100249.31
2017-06-25T14:55:32.177Z,100232.81
2017-06-25T14:58:00.547Z,100231.38
2017-06-25T15:00:29.249Z,100224.09
2017-06-25T15:02:57.618Z,100230.95
2017-06-25T15:05:26.006Z,100241.74
2017-06-25T15:07:54.690Z,100255.59
2017-06-25T15:10:23.886Z,100252.39
2017-06-25T15:12:52.258Z,100248.34
2017-06-25T15:15:20.855Z,100256.08
2017-06-25T15:17:49.222Z,100248.84
2017-06-25T15:20:17.599Z,100255.84
2017-06-25T15:22:46.741Z,100252.59
2017-06-25T15:25:15.512Z,100262.58
2017-06-25T15:27:43.888Z,100263.50
2017-06-25T15:30:12.675Z,100264.86
2017-06-25T15:32:41.046Z,100271.72
2017-06-25T15:35:09.414Z,100269.97
2017-06-25T15:37:38.150Z,100269.73
2017-06-25T15:40:06.515Z,100268.42
2017-06-25T15:42:35.618Z,100277.59
2017-06-25T15:45:04.692Z,100295.04
2017-06-25T15:47:33.462Z,100291.77
2017-06-25T15:50:02.086Z,100299.28
2017-06-25T15:52:31.264Z,100299.64
2017-06-25T15:54:59.632Z,100302.98
2017-06-25T15:57:28.002Z,100300.27
2017-06-25T15:59:56.603Z,100304.53
2017-06-25T16:02:24.974Z,100311.14
2017-06-25T16:04:53.342Z,100311.30
2017-06-25T16:07:21.956Z,100304.55
2017-06-25T16:09:50.322Z,100295.00
2017-06-25T16:12:18.700Z,100298.02
2017-06-25T16:14:47.083Z,100297.50
2017-06-25T16:17:15.495Z,100297.51
2017-06-25T16:19:44.766Z,100289.02
2017-06-25T16:22:13.145Z,100291.51
2017-06-25T16:24:41.523Z,100291.58
2017-06-25T16:27:09.906Z,100304.25
2017-06-25T16:29:38.295Z,100304.99
2017-06-25T16:32:06.707Z,100301.02
2017-06-25T16:34:35.079Z,100328.30
2017-06-25T16:37:03.466Z,100347.45
2017-06-25T16:39:31.831Z,100345.37
2017-06-25T16:42:00.962Z,100354.12
2017-06-25T16:44:30.142Z,100351.02
2017-06-25T16:46:58.519Z,100356.91
2017-06-25T16:49:26.907Z,100358.67
2017-06-25T16:51:55.278Z,100360.96
2017-06-25T16:54:23.847Z,100348.22
2017-06-25T16:56:52.715Z,100351.65
2017-06-25T16:59:21.086Z,100353.80
2017-06-25T17:01:49.471Z,100354.59
2017-06-25T17:04:17.842Z,100344.30
2017-06-25T17:06:46.563Z,100346.48
2017-06-25T17:09:15.332Z,100338.43
2017-06-25T17:11:44.015Z,100336.28
2017-06-25T17:14:12.403Z,100332.58
2017-06-25T17:16:41.107Z,100329.50
2017-06-25T17:19:09.891Z,100328.66
2017-06-25T17:21:38.666Z,100333.54
2017-06-25T17:24:07.055Z,100335.55
2017-06-25T17:26:35.430Z,100329.16
2017-06-25T17:29:03.812Z,100331.45
2017-06-25T17:31:32.187Z,100334.61
2017-06-25T17:34:00.573Z,100339.37
2017-06-25T17:36:28.948Z,100345.67
2017-06-25T17:38:57.343Z,100344.86
2017-06-25T17:41:26.106Z,100345.84
2017-06-25T17:43:54.693Z,100343.44
2017-06-25T17:46:23.066Z,100343.64
2017-06-25T17:48:52.007Z,100358.41
2017-06-25T17:51:20.398Z,100345.69
2017-06-25T17:53:48.771Z,100351.94
2017-06-25T17:56:17.154Z,100354.65
2017-06-25T17:58:45.522Z,100355.44
2017-06-25T18:01:13.916Z,100344.49
2017-06-25T18:03:42.831Z,100353.19
2017-06-25T18:06:11.335Z,100354.90
2017-06-25T18:08:39.706Z,100357.66
2017-06-25T18:11:08.083Z,100359.67
2017-06-25T18:13:36.466Z,100349.30
2017-06-25T18:16:04.840Z,100354.03
2017-06-25T18:18:33.278Z,100347.53
2017-06-25T18:21:01.676Z,100344.19
2017-06-25T18:23:30.104Z,100338.84
2017-06-25T18:26:00.079Z,100330.34
2017-06-25T18:28:28.471Z,100334.58
2017-06-25T18:30:56.875Z,100332.02
2017-06-25T18:33:25.459Z,100335.14
2017-06-25T18:35:53.827Z,100338.29
2017-06-25T18:38:22.198Z,100336.61
2017-06-25T18:40:50.583Z,100339.49
2017-06-25T18:43:18.955Z,100335.44
2017-06-25T18:45:47.351Z,100332.08
2017-06-25T18:48:15.722Z,100338.33
2017-06-25T18:50:44.113Z,100331.45
2017-06-25T18:53:12.483Z,100332.70
2017-06-25T18:55:41.026Z,100326.34
2017-06-25T18:58:09.463Z,100330.41
2017-06-25T19:00:37.841Z,100324.42
2017-06-25T19:03:06.231Z,100328.64
2017-06-25T19:05:34.934Z,100322.09
2017-06-25T19:08:03.779Z,100321.43
2017-06-25T19:10:32.155Z,100326.92
2017-06-25T19:13:00.550Z,100334.02
2017-06-25T19:15:28.920Z,100333.27
2017-06-25T19:17:57.442Z,100332.46
2017-06-25T19:20:26.216Z,100327.52
2017-06-25T19:22:55.231Z,100320.87
2017-06-25T19:25:24.228Z,100333.02
2017-06-25T19:27:52.998Z,100328.86
2017-06-25T19:30:21.383Z,100322.11
2017-06-25T19:32:49.758Z,100332.80
2017-06-25T19:35:18.147Z,100336.46
2017-06-25T19:37:47.288Z,100336.06
2017-06-25T19:40:15.792Z,100327.55
2017-06-25T19:42:44.454Z,100319.98
2017-06-25T19:45:13.449Z,100323.43
2017-06-25T19:47:41.818Z,100325.08
2017-06-25T19:50:11.776Z,100326.50
2017-06-25T19:52:40.159Z,100324.76
2017-06-25T19:55:08.531Z,100321.34
2017-06-25T19:57:36.919Z,100316.29
2017-06-25T20:00:05.302Z,100321.59
2017-06-25T20:02:33.845Z,100319.23
2017-06-25T20:05:02.267Z,100319.55
2017-06-25T20:07:31.055Z,100328.06
2017-06-25T20:09:59.431Z,100328.97
2017-06-25T20:12:27.815Z,100324.80
2017-06-25T20:14:56.207Z,100324.74
2017-06-25T20:17:24.575Z,100316.08
2017-06-25T20:19:52.955Z,100319.31
2017-06-25T20:22:22.055Z,100320.34
2017-06-25T20:24:50.443Z,100317.59
2017-06-25T20:27:18.819Z,100322.33
2017-06-25T20:29:47.395Z,100322.15
2017-06-25T20:32:15.767Z,100327.37
2017-06-25T20:34:44.134Z,100335.39
2017-06-25T20:37:13.583Z,100340.10
2017-06-25T20:39:42.360Z,100340.97
2017-06-25T20:42:11.166Z,100341.51
2017-06-25T20:44:39.942Z,100343.78
2017-06-25T20:47:08.728Z,100344.25
2017-06-25T20:49:37.106Z,100351.77
2017-06-25T20:52:05.692Z,100358.67
2017-06-25T20:54:34.075Z,100352.35
2017-06-25T20:57:02.850Z,100347.02
2017-06-25T20:59:31.559Z,100341.01
2017-06-25T21:02:00.343Z,100345.09
2017-06-25T21:04:29.129Z,100350.77
2017-06-25T21:06:57.898Z,100345.20
2017-06-25T21:09:26.283Z,100352.34
2017-06-25T21:11:54.658Z,100352.72
2017-06-25T21:14:23.251Z,100347.77
2017-06-25T21:16:51.971Z,100350.14
2017-06-25T21:19:20.352Z,100356.38
2017-06-25T21:21:48.734Z,100357.76
2017-06-25T21:24:17.111Z,100362.45
2017-06-25T21:26:45.506Z,100364.05
2017-06-25T21:29:13.874Z,100358.24
2017-06-25T21:31:42.258Z,100367.00
2017-06-25T21:34:10.692Z,100372.74
2017-06-25T21:36:39.071Z,100375.97
2017-06-25T21:39:07.438Z,100375.87
2017-06-25T21:41:35.822Z,100369.26
2017-06-25T21:44:04.207Z,100384.42
2017-06-25T21:46:32.574Z,100389.37
2017-06-25T21:49:01.204Z,100382.22
2017-06-25T21:51:29.979Z,100387.05
2017-06-25T21:53:58.627Z,100382.28
2017-06-25T21:56:27.004Z,100376.37
2017-06-25T21:58:55.374Z,100383.00
2017-06-25T22:01:23.760Z,100385.20
2017-06-25T22:03:52.914Z,100382.46
2017-06-25T22:06:21.703Z,100382.52
2017-06-25T22:08:50.474Z,100374.09
2017-06-25T22:11:19.480Z,100367.07
2017-06-25T22:13:48.252Z,100366.30
2017-06-25T22:16:16.630Z,100367.27
2017-06-25T22:18:45.106Z,100367.56
2017-06-25T22:21:14.143Z,100369.07
2017-06-25T22:23:42.791Z,100378.95
2017-06-25T22:26:11.280Z,100383.31
2017-06-25T22:28:39.659Z,100386.84
2017-06-25T22:31:08.042Z,100389.30
2017-06-25T22:33:36.419Z,100388.02
2017-06-25T22:36:04.852Z,100383.77
2017-06-25T22:38:33.235Z,100383.17
2017-06-25T22:41:01.648Z,100379.86
2017-06-25T22:43:30.035Z,100385.48
2017-06-25T22:45:58.618Z,100387.14
2017-06-25T22:48:26.998Z,100398.04
2017-06-25T22:50:55.945Z,100391.88
2017-06-25T22:53:24.339Z,100386.83
2017-06-25T22:55:53.546Z,100396.44
2017-06-25T22:58:22.178Z,100392.13
2017-06-25T23:00:50.946Z,100383.91
2017-06-25T23:03:19.523Z,100384.51
2017-06-25T23:05:47.894Z,100390.63
2017-06-25T23:08:17.079Z,100387.88
2017-06-25T23:10:45.471Z,100387.83
2017-06-25T23:13:13.879Z,100381.03
2017-06-25T23:15:42.271Z,100385.66
2017-06-25T23:18:11.042Z,100386.08
2017-06-25T23:20:39.426Z,100376.16
2017-06-25T23:23:07.805Z,100365.53
2017-06-25T23:25:36.195Z,100370.61
2017-06-25T23:28:04.962Z,100375.19
2017-06-25T23:30:33.563Z,100380.48
2017-06-25T23:33:02.335Z,100379.06
2017-06-25T23:35:30.711Z,100379.06
2017-06-25T23:37:59.099Z,100393.33
2017-06-25T23:40:28.108Z,100390.70
2017-06-25T23:42:56.897Z,100402.72
2017-06-25T23:45:25.728Z,100400.84
2017-06-25T23:47:57.694Z,100391.16
2017-06-25T23:50:26.075Z,100394.23
2017-06-25T23:52:54.799Z,100390.59
2017-06-25T23:55:23.171Z,100390.91
2017-06-25T23:57:51.546Z,100389.94
